Time;durP1;ratioP1;P1;durP2;ratioP2;P2;SDS_P1;SDS_P2;PMS_P1;PMS_P2;Temp;Humidity;BMP_temperature;BMP_pressure;BME280_temperature;BME280_humidity;BME280_pressure;Samples;Min_cycle;Max_cycle;Signal;HPM_P1;HPM_P2
2023/05/27 00:00:14;;;;;;;10.70;10.30;;;11.10;99.90;;;;;;5042195;28;20470;-68
2023/05/27 00:02:41;;;;;;;10.73;10.33;;;11.00;99.90;;;;;;5041416;28;20474;-68
2023/05/27 00:05:08;;;;;;;10.90;10.50;;;11.00;99.90;;;;;;5030571;28;21011;-68
2023/05/27 00:07:35;;;;;;;12.57;12.07;;;10.90;99.90;;;;;;5044174;28;20573;-68
2023/05/27 00:10:05;;;;;;;10.63;10.23;;;10.90;99.90;;;;;;5048373;28;20877;-67
2023/05/27 00:12:33;;;;;;;10.33;9.93;;;10.90;99.90;;;;;;5033696;28;20464;-68
2023/05/27 00:15:00;;;;;;;10.47;10.07;;;10.90;99.90;;;;;;5044864;28;20460;-67
2023/05/27 00:17:27;;;;;;;11.33;10.93;;;10.80;99.90;;;;;;5044729;28;20460;-68
2023/05/27 00:19:55;;;;;;;11.93;11.43;;;10.80;99.90;;;;;;5043065;28;21016;-68
2023/05/27 00:22:23;;;;;;;10.80;10.40;;;10.70;99.90;;;;;;5042386;28;20464;-68
2023/05/27 00:24:50;;;;;;;9.77;9.47;;;10.60;99.90;;;;;;5040382;28;20478;-68
2023/05/27 00:27:19;;;;;;;10.20;9.70;;;10.60;99.90;;;;;;5040781;28;20999;-68
2023/05/27 00:29:47;;;;;;;10.40;10.00;;;10.60;99.90;;;;;;5040130;28;21055;-68
2023/05/27 00:32:14;;;;;;;10.33;9.87;;;10.50;99.90;;;;;;5038017;28;20464;-68
2023/05/27 00:34:40;;;;;;;10.20;9.83;;;10.40;99.90;;;;;;5030320;28;20928;-68
2023/05/27 00:37:08;;;;;;;8.90;8.60;;;10.40;99.90;;;;;;5040527;28;20464;-68
2023/05/27 00:39:34;;;;;;;11.80;11.10;;;10.30;99.90;;;;;;5037283;28;20466;-68
2023/05/27 00:42:03;;;;;;;9.40;9.10;;;10.30;99.90;;;;;;5028075;28;20567;-68
2023/05/27 00:44:31;;;;;;;9.87;9.50;;;10.20;99.90;;;;;;5040807;28;20456;-68
2023/05/27 00:46:57;;;;;;;10.97;10.40;;;10.20;99.90;;;;;;5033023;28;20587;-67
2023/05/27 00:49:26;;;;;;;9.30;9.00;;;10.10;99.90;;;;;;5037625;28;20459;-68
2023/05/27 00:51:54;;;;;;;9.97;9.43;;;10.10;99.90;;;;;;5038537;28;20940;-68
2023/05/27 00:54:21;;;;;;;8.57;8.27;;;10.10;99.90;;;;;;5043867;28;20458;-68
2023/05/27 00:56:48;;;;;;;9.00;8.70;;;10.10;99.90;;;;;;5037746;28;20464;-68
2023/05/27 00:59:15;;;;;;;9.00;8.70;;;10.00;99.90;;;;;;5042049;28;20457;-68
2023/05/27 01:01:43;;;;;;;9.27;8.97;;;10.00;99.90;;;;;;5038276;28;20545;-68
2023/05/27 01:04:13;;;;;;;9.80;9.40;;;9.90;99.90;;;;;;5037613;28;20462;-68
2023/05/27 01:06:48;;;;;;;9.90;9.40;;;9.80;99.90;;;;;;5036771;28;20467;-68
2023/05/27 01:09:22;;;;;;;8.40;8.10;;;9.90;99.90;;;;;;5040195;28;20460;-68
2023/05/27 01:11:54;;;;;;;9.07;8.77;;;9.80;99.90;;;;;;5039199;28;20463;-68
2023/05/27 01:14:27;;;;;;;9.07;8.77;;;9.80;99.90;;;;;;5036188;28;20461;-68
2023/05/27 01:17:00;;;;;;;9.80;9.30;;;9.80;99.90;;;;;;5043368;28;20930;-68
2023/05/27 01:19:31;;;;;;;8.37;8.07;;;9.80;99.90;;;;;;5043452;28;20491;-68
2023/05/27 01:22:01;;;;;;;8.77;8.47;;;9.70;99.90;;;;;;5036590;28;20491;-68
2023/05/27 01:24:30;;;;;;;8.93;8.63;;;9.70;99.90;;;;;;5039828;28;20457;-68
2023/05/27 01:26:57;;;;;;;9.37;8.83;;;9.80;99.90;;;;;;5037827;28;20570;-68
2023/05/27 01:29:24;;;;;;;9.70;9.30;;;9.80;99.90;;;;;;5033498;28;20487;-68
2023/05/27 01:31:58;;;;;;;9.00;8.70;;;9.80;99.90;;;;;;5040657;28;21004;-68
2023/05/27 01:34:31;;;;;;;9.17;8.87;;;9.80;99.90;;;;;;5035639;28;20464;-67
2023/05/27 01:37:03;;;;;;;9.40;8.77;;;9.80;99.90;;;;;;5038509;28;20456;-67
2023/05/27 01:39:32;;;;;;;10.63;9.60;;;9.80;99.90;;;;;;5036225;28;20510;-68
2023/05/27 01:42:01;;;;;;;9.03;8.73;;;9.80;99.90;;;;;;5038214;28;20474;-69
2023/05/27 01:44:30;;;;;;;9.60;9.20;;;9.80;99.90;;;;;;5042868;28;20466;-68
2023/05/27 01:47:00;;;;;;;9.87;9.50;;;9.70;99.90;;;;;;5043358;28;20707;-68
2023/05/27 01:49:27;;;;;;;9.20;8.90;;;9.70;99.90;;;;;;5038514;28;20551;-68
2023/05/27 01:51:55;;;;;;;9.50;9.20;;;9.70;99.90;;;;;;5040566;28;20553;-68
2023/05/27 01:54:22;;;;;;;11.17;10.47;;;9.70;99.90;;;;;;5033121;28;20903;-68
2023/05/27 01:56:51;;;;;;;9.13;8.83;;;9.70;99.90;;;;;;5040971;28;20473;-68
2023/05/27 01:59:17;;;;;;;8.90;8.60;;;9.70;99.90;;;;;;5037982;28;20521;-68
2023/05/27 02:01:45;;;;;;;9.60;9.30;;;9.60;99.90;;;;;;5036116;28;20547;-68
2023/05/27 02:04:11;;;;;;;9.90;9.40;;;9.60;99.90;;;;;;5037632;28;20538;-69
2023/05/27 02:06:38;;;;;;;9.43;9.03;;;9.50;99.90;;;;;;5037483;28;20460;-67
2023/05/27 02:09:05;;;;;;;13.23;12.43;;;9.50;99.90;;;;;;5041447;28;20488;-68
2023/05/27 02:11:33;;;;;;;10.50;9.83;;;9.50;99.90;;;;;;5035821;28;20472;-68
2023/05/27 02:14:02;;;;;;;9.40;9.10;;;9.50;99.90;;;;;;5031198;28;20966;-68
2023/05/27 02:16:30;;;;;;;9.43;9.13;;;9.50;99.90;;;;;;5034117;28;20465;-68
2023/05/27 02:18:57;;;;;;;9.90;9.40;;;9.40;99.90;;;;;;5040886;28;20490;-68
2023/05/27 02:21:24;;;;;;;9.17;8.87;;;9.40;99.90;;;;;;5032938;28;20455;-68
2023/05/27 02:23:52;;;;;;;11.13;10.63;;;9.40;99.90;;;;;;5040002;28;21060;-67
2023/05/27 02:26:21;;;;;;;8.87;8.57;;;9.40;99.90;;;;;;5044211;28;20554;-68
2023/05/27 02:28:49;;;;;;;10.67;9.70;;;9.30;99.90;;;;;;5041149;28;20578;-68
2023/05/27 02:31:17;;;;;;;8.60;8.30;;;9.30;99.90;;;;;;5037773;28;20509;-67
2023/05/27 02:33:45;;;;;;;8.67;8.37;;;9.30;99.90;;;;;;5046364;28;20521;-68
2023/05/27 02:36:11;;;;;;;22.00;12.00;;;9.30;99.90;;;;;;5041227;28;20901;-68
2023/05/27 02:38:39;;;;;;;12.90;11.67;;;9.20;99.90;;;;;;5040710;28;20478;-68
2023/05/27 02:41:06;;;;;;;9.10;8.80;;;9.30;99.90;;;;;;5036216;28;20469;-68
2023/05/27 02:43:33;;;;;;;12.17;9.13;;;9.30;99.90;;;;;;5035748;28;20471;-68
2023/05/27 02:46:00;;;;;;;11.80;9.60;;;9.20;99.90;;;;;;5043772;28;20456;-68
2023/05/27 02:48:29;;;;;;;10.90;9.37;;;9.10;99.90;;;;;;5041724;28;20495;-68
2023/05/27 02:50:57;;;;;;;8.93;8.57;;;9.20;99.90;;;;;;5045210;28;20486;-68
2023/05/27 02:53:23;;;;;;;9.70;8.80;;;9.10;99.90;;;;;;5037033;28;20799;-67
2023/05/27 02:55:51;;;;;;;10.70;9.80;;;9.10;99.90;;;;;;5049330;28;20452;-68
2023/05/27 02:58:17;;;;;;;10.00;9.10;;;9.10;99.90;;;;;;5041476;28;20490;-68
2023/05/27 03:00:44;;;;;;;8.90;8.50;;;9.10;99.90;;;;;;5043823;28;20468;-67
2023/05/27 03:03:11;;;;;;;9.20;8.60;;;9.10;99.90;;;;;;5030609;28;20456;-68
2023/05/27 03:05:39;;;;;;;9.87;9.47;;;9.10;99.90;;;;;;5034647;28;20553;-67
2023/05/27 03:08:06;;;;;;;9.70;9.30;;;9.00;99.90;;;;;;5043145;28;20496;-68
2023/05/27 03:10:33;;;;;;;10.37;9.47;;;9.00;99.90;;;;;;5044828;28;21002;-68
2023/05/27 03:13:00;;;;;;;8.70;8.03;;;9.00;99.90;;;;;;5038999;28;20538;-67
2023/05/27 03:15:29;;;;;;;7.10;6.90;;;9.00;99.90;;;;;;5046313;28;20464;-67
2023/05/27 03:17:56;;;;;;;8.63;8.13;;;8.90;99.90;;;;;;5038896;28;20467;-67
2023/05/27 03:20:25;;;;;;;11.30;8.43;;;8.90;99.90;;;;;;5034694;28;20569;-68
2023/05/27 03:22:56;;;;;;;8.30;7.97;;;8.90;99.90;;;;;;5040937;28;20456;-67
2023/05/27 03:25:23;;;;;;;20.23;7.40;;;8.90;99.90;;;;;;5037529;28;20858;-68
2023/05/27 03:27:50;;;;;;;15.73;8.10;;;8.80;99.90;;;;;;5043391;28;20490;-68
2023/05/27 03:30:17;;;;;;;10.70;9.50;;;8.80;99.90;;;;;;5041889;28;20925;-67
2023/05/27 03:32:44;;;;;;;8.67;8.17;;;8.80;99.90;;;;;;5038703;28;20543;-68
2023/05/27 03:35:11;;;;;;;8.43;7.77;;;8.70;99.90;;;;;;5031121;28;20507;-68
2023/05/27 03:37:39;;;;;;;12.47;9.17;;;8.80;99.90;;;;;;5046762;28;20507;-68
2023/05/27 03:40:08;;;;;;;8.27;7.67;;;8.70;99.90;;;;;;5040794;28;20460;-68
2023/05/27 03:42:35;;;;;;;8.97;8.10;;;8.70;99.90;;;;;;5040665;28;21001;-67
2023/05/27 03:45:02;;;;;;;7.23;6.90;;;8.70;99.90;;;;;;5039518;28;20563;-68
2023/05/27 03:47:29;;;;;;;32.27;9.30;;;8.70;99.90;;;;;;5040826;28;20464;-67
2023/05/27 03:49:56;;;;;;;9.73;9.13;;;8.70;99.90;;;;;;5043480;28;20491;-67
2023/05/27 03:52:23;;;;;;;7.80;7.50;;;8.70;99.90;;;;;;5036390;28;20468;-67
2023/05/27 03:54:50;;;;;;;14.87;9.23;;;8.60;99.90;;;;;;5045492;28;20533;-68
2023/05/27 03:57:19;;;;;;;8.40;7.77;;;8.60;99.90;;;;;;5032883;28;20456;-67
2023/05/27 03:59:46;;;;;;;7.70;7.30;;;8.60;99.90;;;;;;5037541;28;20468;-67
2023/05/27 04:02:13;;;;;;;7.83;7.33;;;8.60;99.90;;;;;;5032222;28;21126;-67
2023/05/27 04:04:40;;;;;;;8.10;7.70;;;8.60;99.90;;;;;;5041013;28;20962;-68
2023/05/27 04:07:07;;;;;;;6.60;6.40;;;8.60;99.90;;;;;;5033678;28;20460;-67
2023/05/27 04:09:34;;;;;;;15.60;7.37;;;8.60;99.90;;;;;;5040569;28;20488;-67
2023/05/27 04:12:01;;;;;;;8.87;7.97;;;8.60;99.90;;;;;;5043724;28;20456;-68
2023/05/27 04:14:29;;;;;;;8.93;7.77;;;8.60;99.90;;;;;;5036008;28;20710;-67
2023/05/27 04:16:56;;;;;;;12.00;8.20;;;8.60;99.90;;;;;;5038926;28;20455;-68
2023/05/27 04:19:23;;;;;;;7.30;6.90;;;8.60;99.90;;;;;;5042758;28;20499;-67
2023/05/27 04:21:50;;;;;;;9.97;8.40;;;8.60;99.90;;;;;;5039709;28;20456;-68
2023/05/27 04:24:17;;;;;;;8.80;8.13;;;8.60;99.90;;;;;;5039960;28;20469;-67
2023/05/27 04:26:45;;;;;;;8.80;8.27;;;8.70;99.90;;;;;;5042823;28;20479;-67
2023/05/27 04:29:12;;;;;;;7.50;7.20;;;8.70;99.90;;;;;;5040291;28;20538;-68
2023/05/27 04:31:42;;;;;;;8.10;7.70;;;8.70;99.90;;;;;;5041323;28;20464;-67
2023/05/27 04:34:09;;;;;;;9.07;8.57;;;8.70;99.90;;;;;;5044593;28;20463;-67
2023/05/27 04:36:36;;;;;;;6.97;6.60;;;8.70;99.90;;;;;;5044405;28;20529;-67
2023/05/27 04:39:04;;;;;;;8.60;8.00;;;8.80;99.90;;;;;;5029115;28;20452;-67
2023/05/27 04:41:32;;;;;;;8.60;7.97;;;8.90;99.90;;;;;;5039907;28;20559;-68
2023/05/27 04:44:00;;;;;;;8.63;7.87;;;8.90;99.90;;;;;;5040048;28;20456;-68
2023/05/27 04:46:27;;;;;;;6.60;6.40;;;9.00;99.90;;;;;;5047307;28;20451;-68
2023/05/27 04:48:56;;;;;;;7.53;7.23;;;9.10;99.90;;;;;;5037550;28;20480;-67
2023/05/27 04:51:22;;;;;;;8.63;8.13;;;9.10;99.90;;;;;;5047210;28;20862;-67
2023/05/27 04:53:50;;;;;;;7.83;7.43;;;9.10;99.90;;;;;;5034314;28;20880;-68
2023/05/27 04:56:18;;;;;;;11.03;10.03;;;9.30;99.90;;;;;;5039235;28;20555;-68
2023/05/27 04:58:48;;;;;;;8.30;7.90;;;9.30;99.90;;;;;;5039515;28;21259;-67
2023/05/27 05:01:17;;;;;;;8.93;8.43;;;9.40;99.90;;;;;;5039926;28;20456;-67
2023/05/27 05:03:52;;;;;;;7.27;7.07;;;9.30;99.90;;;;;;5029250;28;20473;-68
2023/05/27 05:06:23;;;;;;;9.07;8.50;;;9.40;99.90;;;;;;5030053;28;20530;-68
2023/05/27 05:08:50;;;;;;;8.57;8.07;;;9.50;99.90;;;;;;5031913;28;20578;-68
2023/05/27 05:11:17;;;;;;;10.33;8.90;;;9.50;99.90;;;;;;5027175;28;21050;-68
2023/05/27 05:13:45;;;;;;;7.90;7.60;;;9.60;99.90;;;;;;5032608;28;20502;-67
2023/05/27 05:16:12;;;;;;;8.33;8.03;;;9.60;99.90;;;;;;5036255;28;20475;-68
2023/05/27 05:18:39;;;;;;;14.17;10.00;;;9.80;99.90;;;;;;5040414;28;20990;-68
2023/05/27 05:21:06;;;;;;;7.53;7.33;;;9.90;99.90;;;;;;5037707;28;20877;-67
2023/05/27 05:23:35;;;;;;;9.37;8.87;;;9.90;99.90;;;;;;5036338;28;20492;-68
2023/05/27 05:26:06;;;;;;;10.00;9.50;;;9.90;99.90;;;;;;5035596;28;20862;-67
2023/05/27 05:28:35;;;;;;;8.37;8.07;;;10.00;99.90;;;;;;5042724;28;20495;-68
2023/05/27 05:31:02;;;;;;;9.10;8.73;;;10.10;99.90;;;;;;5045645;28;20468;-68
2023/05/27 05:33:29;;;;;;;10.20;9.60;;;10.30;99.90;;;;;;5040057;28;20463;-68
2023/05/27 05:35:56;;;;;;;11.43;10.60;;;10.20;99.90;;;;;;5037598;28;20459;-67
2023/05/27 05:38:23;;;;;;;11.20;10.60;;;10.30;99.90;;;;;;5036327;28;20444;-67
2023/05/27 05:40:54;;;;;;;11.03;9.93;;;10.40;99.90;;;;;;5034563;28;20480;-68
2023/05/27 05:43:21;;;;;;;11.00;10.50;;;10.50;99.90;;;;;;5035294;28;20806;-68
2023/05/27 05:45:48;;;;;;;10.13;9.70;;;10.60;99.90;;;;;;5038162;28;20479;-69
2023/05/27 05:48:15;;;;;;;9.90;9.50;;;10.70;99.90;;;;;;5037304;28;20459;-68
2023/05/27 05:50:42;;;;;;;11.83;11.33;;;10.80;99.90;;;;;;5031539;28;20510;-69
2023/05/27 05:53:10;;;;;;;10.03;9.07;;;10.90;99.90;;;;;;5034012;28;20465;-68
2023/05/27 05:55:37;;;;;;;10.37;9.87;;;10.90;99.90;;;;;;5026685;28;21015;-68
2023/05/27 05:58:05;;;;;;;10.63;10.03;;;11.00;99.90;;;;;;5038872;28;20512;-67
2023/05/27 06:00:32;;;;;;;9.27;8.97;;;11.10;99.90;;;;;;5036320;28;20518;-68
2023/05/27 06:02:59;;;;;;;10.20;9.80;;;11.20;99.90;;;;;;5041774;28;20518;-68
2023/05/27 06:05:26;;;;;;;12.23;10.10;;;11.30;99.90;;;;;;5037741;28;20472;-68
2023/05/27 06:07:54;;;;;;;11.60;11.00;;;11.40;99.90;;;;;;5039501;28;20880;-68
2023/05/27 06:10:21;;;;;;;11.47;10.97;;;11.50;99.90;;;;;;5040050;28;20500;-68
2023/05/27 06:12:48;;;;;;;11.67;11.07;;;11.60;99.90;;;;;;5038875;28;20978;-67
2023/05/27 06:15:16;;;;;;;10.00;9.70;;;11.70;99.90;;;;;;5037863;28;20469;-68
2023/05/27 06:17:47;;;;;;;10.93;10.43;;;11.80;99.90;;;;;;5038398;28;20467;-68
2023/05/27 06:20:14;;;;;;;11.00;10.50;;;12.00;99.90;;;;;;5037336;28;20708;-68
2023/05/27 06:22:41;;;;;;;10.27;9.87;;;12.20;99.90;;;;;;5036914;28;20464;-67
2023/05/27 06:25:09;;;;;;;10.63;10.23;;;12.30;99.90;;;;;;5041224;28;20460;-67
2023/05/27 06:27:36;;;;;;;11.63;11.13;;;12.50;99.90;;;;;;5036834;28;20546;-68
2023/05/27 06:30:03;;;;;;;14.73;13.57;;;12.70;99.90;;;;;;5035312;28;20488;-68
2023/05/27 06:32:32;;;;;;;11.30;10.90;;;12.80;99.90;;;;;;5038728;28;20468;-67
2023/05/27 06:34:58;;;;;;;13.47;12.77;;;13.00;99.90;;;;;;5039798;28;20459;-68
2023/05/27 06:37:25;;;;;;;16.53;14.93;;;13.30;99.90;;;;;;5040940;28;20530;-67
2023/05/27 06:39:52;;;;;;;12.33;11.83;;;13.40;99.90;;;;;;5033778;28;20467;-67
2023/05/27 06:42:20;;;;;;;13.60;12.70;;;13.60;99.90;;;;;;5038885;28;20864;-67
2023/05/27 06:44:46;;;;;;;13.27;12.70;;;13.60;99.90;;;;;;5039755;28;20467;-68
2023/05/27 06:47:13;;;;;;;13.67;13.00;;;13.40;99.90;;;;;;5035736;28;21023;-68
2023/05/27 06:49:41;;;;;;;12.57;11.97;;;13.30;99.90;;;;;;5030428;28;20503;-68
2023/05/27 06:52:09;;;;;;;11.93;11.53;;;13.30;99.90;;;;;;5035195;28;20468;-68
2023/05/27 06:54:37;;;;;;;12.30;11.80;;;13.50;99.90;;;;;;5039742;28;20467;-67
2023/05/27 06:57:04;;;;;;;13.03;12.43;;;13.80;99.90;;;;;;5043481;28;20451;-68
2023/05/27 06:59:33;;;;;;;13.63;12.93;;;14.20;99.90;;;;;;5038502;28;20456;-68
2023/05/27 07:02:00;;;;;;;12.27;11.77;;;14.30;99.90;;;;;;5033902;28;20460;-67
2023/05/27 07:04:27;;;;;;;13.00;12.50;;;14.60;99.90;;;;;;5039212;28;20518;-67
2023/05/27 07:06:55;;;;;;;13.90;13.00;;;14.80;99.90;;;;;;5041486;28;20550;-67
2023/05/27 07:09:23;;;;;;;12.90;12.40;;;15.00;99.90;;;;;;5037249;28;20570;-67
2023/05/27 07:11:52;;;;;;;12.23;11.73;;;14.90;99.90;;;;;;5036856;28;20467;-68
2023/05/27 07:14:18;;;;;;;12.63;12.10;;;14.70;99.90;;;;;;5031160;28;20522;-68
2023/05/27 07:16:45;;;;;;;13.50;13.00;;;14.90;99.90;;;;;;5040156;28;20525;-69
2023/05/27 07:19:12;;;;;;;14.47;13.70;;;14.90;99.90;;;;;;5039009;28;20493;-68
2023/05/27 07:21:39;;;;;;;12.80;12.30;;;14.60;99.90;;;;;;5036606;28;20590;-68
2023/05/27 07:24:07;;;;;;;13.53;13.00;;;14.80;99.90;;;;;;5043495;28;20512;-68
2023/05/27 07:26:34;;;;;;;16.57;15.27;;;15.20;99.90;;;;;;5031256;28;20464;-68
2023/05/27 07:29:03;;;;;;;13.10;12.60;;;15.50;99.90;;;;;;5035331;28;20468;-67
2023/05/27 07:31:30;;;;;;;14.37;13.67;;;15.70;99.90;;;;;;5043205;28;20460;-68
2023/05/27 07:33:57;;;;;;;14.43;13.83;;;15.90;99.90;;;;;;5036972;28;20463;-68
2023/05/27 07:36:24;;;;;;;13.30;12.80;;;16.00;99.90;;;;;;5038282;28;20577;-67
2023/05/27 07:38:51;;;;;;;15.50;14.80;;;16.30;99.90;;;;;;5043620;28;20440;-68
2023/05/27 07:41:20;;;;;;;14.57;13.50;;;16.30;99.90;;;;;;5034961;28;20558;-68
2023/05/27 07:43:48;;;;;;;13.10;12.60;;;16.20;99.90;;;;;;5045120;28;20471;-68
2023/05/27 07:46:15;;;;;;;12.90;12.40;;;16.40;99.90;;;;;;5036873;28;22047;-68
2023/05/27 07:48:42;;;;;;;13.17;12.67;;;16.50;99.90;;;;;;5040951;28;20519;-68
2023/05/27 07:51:09;;;;;;;13.20;12.70;;;16.90;99.90;;;;;;5034778;28;20903;-68
2023/05/27 07:53:37;;;;;;;13.63;13.13;;;17.10;99.90;;;;;;5039309;28;21075;-68
2023/05/27 07:56:04;;;;;;;13.43;12.93;;;17.30;99.90;;;;;;5036754;28;20463;-68
2023/05/27 07:58:33;;;;;;;15.50;14.90;;;17.40;99.90;;;;;;5045674;28;20466;-68
2023/05/27 08:01:00;;;;;;;13.67;13.07;;;17.60;99.90;;;;;;5038139;28;20523;-68
2023/05/27 08:03:27;;;;;;;14.20;13.60;;;17.70;99.90;;;;;;5040106;28;20468;-68
2023/05/27 08:05:55;;;;;;;14.73;13.93;;;17.70;99.90;;;;;;5039730;28;20464;-68
2023/05/27 08:08:22;;;;;;;12.73;12.23;;;17.80;99.90;;;;;;5030896;28;20472;-68
2023/05/27 08:10:48;;;;;;;14.43;13.73;;;18.10;99.90;;;;;;5034717;28;20591;-69
2023/05/27 08:13:15;;;;;;;13.83;13.27;;;18.80;99.90;;;;;;5039016;28;20468;-68
2023/05/27 08:15:44;;;;;;;13.47;12.97;;;19.20;99.90;;;;;;5035219;28;20467;-68
2023/05/27 08:18:11;;;;;;;14.10;13.20;;;19.90;99.90;;;;;;5031839;28;20463;-67
2023/05/27 08:20:38;;;;;;;14.70;13.90;;;20.60;99.90;;;;;;5032259;28;20546;-68
2023/05/27 08:23:05;;;;;;;13.50;13.00;;;21.00;99.90;;;;;;5045667;28;20946;-67
2023/05/27 08:25:32;;;;;;;15.50;14.60;;;20.60;99.90;;;;;;5042651;28;20521;-68
2023/05/27 08:28:01;;;;;;;14.03;13.43;;;20.80;99.90;;;;;;5035800;28;20519;-68
2023/05/27 08:30:28;;;;;;;13.57;13.07;;;21.70;99.90;;;;;;5033718;28;20483;-68
2023/05/27 08:32:57;;;;;;;15.20;13.87;;;21.90;99.90;;;;;;5036563;28;20542;-68
2023/05/27 08:35:24;;;;;;;13.00;12.50;;;21.60;99.90;;;;;;5034828;28;20909;-68
2023/05/27 08:37:52;;;;;;;13.37;12.87;;;21.40;99.90;;;;;;5030736;28;20971;-68
2023/05/27 08:40:20;;;;;;;13.63;13.13;;;21.80;99.90;;;;;;5025400;28;20832;-68
2023/05/27 08:42:48;;;;;;;13.40;12.90;;;22.20;99.90;;;;;;5030810;28;20828;-68
2023/05/27 08:45:15;;;;;;;13.40;12.90;;;23.20;99.90;;;;;;5040156;28;20566;-68
2023/05/27 08:47:42;;;;;;;13.57;13.07;;;23.70;99.30;;;;;;5035089;28;20905;-68
2023/05/27 08:50:11;;;;;;;14.27;13.67;;;24.10;97.60;;;;;;5035621;28;20467;-68
2023/05/27 08:52:46;;;;;;;15.13;14.43;;;24.50;96.20;;;;;;5036756;28;20456;-68
2023/05/27 08:55:18;;;;;;;15.10;13.77;;;23.90;95.60;;;;;;5038331;28;20546;-68
2023/05/27 08:57:51;;;;;;;14.07;13.40;;;23.80;95.70;;;;;;5031300;28;20946;-68
2023/05/27 09:00:18;;;;;;;13.40;12.90;;;23.60;95.30;;;;;;5037660;28;20471;-68
2023/05/27 09:02:45;;;;;;;13.20;12.70;;;23.80;94.50;;;;;;5035564;28;20877;-68
2023/05/27 09:05:15;;;;;;;13.20;12.70;;;24.30;93.20;;;;;;5039257;28;20634;-68
2023/05/27 09:07:43;;;;;;;12.93;12.43;;;24.60;93.00;;;;;;5035471;28;20654;-68
2023/05/27 09:10:10;;;;;;;13.13;12.63;;;24.50;92.50;;;;;;5032697;28;20890;-67
2023/05/27 09:12:37;;;;;;;13.53;12.93;;;24.50;92.20;;;;;;5033815;28;20530;-68
2023/05/27 09:15:04;;;;;;;13.10;12.60;;;24.30;91.10;;;;;;5031065;28;20456;-68
2023/05/27 09:17:32;;;;;;;13.43;12.93;;;24.90;90.50;;;;;;5035218;28;20465;-68
2023/05/27 09:19:59;;;;;;;14.30;13.70;;;24.70;90.80;;;;;;5037666;28;20484;-68
2023/05/27 09:22:30;;;;;;;14.23;13.53;;;24.20;87.20;;;;;;5035593;28;20471;-68
2023/05/27 09:24:57;;;;;;;12.90;12.40;;;24.70;89.20;;;;;;5039721;28;20475;-68
2023/05/27 09:27:29;;;;;;;18.60;14.10;;;25.10;89.20;;;;;;5036548;28;20567;-68
2023/05/27 09:29:57;;;;;;;14.07;13.37;;;25.40;88.10;;;;;;5038405;28;20867;-68
2023/05/27 09:32:27;;;;;;;15.47;14.50;;;24.60;85.80;;;;;;5043382;28;20538;-68
2023/05/27 09:34:54;;;;;;;14.73;13.80;;;24.50;88.20;;;;;;5038911;28;20487;-68
2023/05/27 09:37:24;;;;;;;13.20;12.70;;;23.80;89.40;;;;;;5032843;28;20468;-68
2023/05/27 09:39:54;;;;;;;13.83;13.13;;;24.70;88.00;;;;;;5037555;28;20522;-68
2023/05/27 09:42:23;;;;;;;12.80;12.30;;;24.90;85.30;;;;;;5040012;28;20472;-68
2023/05/27 09:44:50;;;;;;;13.03;12.47;;;25.10;84.60;;;;;;5038404;28;20487;-68
2023/05/27 09:47:20;;;;;;;14.37;13.77;;;25.20;85.30;;;;;;5035129;28;20881;-68
2023/05/27 09:49:52;;;;;;;13.37;12.70;;;25.10;82.80;;;;;;5041611;28;20525;-68
2023/05/27 09:52:21;;;;;;;13.93;13.33;;;25.20;81.00;;;;;;5039058;28;20452;-68
2023/05/27 09:54:50;;;;;;;14.27;13.47;;;24.90;80.40;;;;;;5040379;28;20571;-68
2023/05/27 09:57:22;;;;;;;14.90;14.00;;;25.40;81.40;;;;;;5041876;28;20468;-68
2023/05/27 09:59:51;;;;;;;13.07;12.57;;;25.60;81.70;;;;;;5039933;28;20551;-68
2023/05/27 10:02:21;;;;;;;13.60;13.10;;;26.10;80.30;;;;;;5048383;28;20463;-68
2023/05/27 10:04:50;;;;;;;22.33;13.50;;;27.00;80.70;;;;;;5041321;28;20955;-68
2023/05/27 10:07:21;;;;;;;13.00;12.50;;;25.90;77.00;;;;;;5037929;28;20521;-68
2023/05/27 10:09:49;;;;;;;14.33;13.70;;;26.10;78.30;;;;;;5037168;28;20468;-68
2023/05/27 10:12:18;;;;;;;13.37;12.87;;;25.70;78.10;;;;;;5039083;28;20557;-68
2023/05/27 10:14:46;;;;;;;14.83;13.93;;;26.10;78.20;;;;;;5039918;28;20937;-68
2023/05/27 10:17:13;;;;;;;13.83;13.23;;;26.50;76.40;;;;;;5039273;28;20461;-68
2023/05/27 10:19:53;;;;;;;17.27;15.83;;;27.10;75.40;;;;;;5040909;28;20986;-68
2023/05/27 10:22:20;;;;;;;13.70;13.10;;;26.10;74.00;;;;;;5038793;28;20474;-68
2023/05/27 10:24:49;;;;;;;15.80;14.23;;;26.30;75.60;;;;;;5039807;28;20460;-68
2023/05/27 10:27:18;;;;;;;15.23;14.13;;;25.50;76.80;;;;;;5045708;28;20490;-68
2023/05/27 10:29:45;;;;;;;13.37;12.80;;;26.30;74.60;;;;;;5039719;28;20478;-68
2023/05/27 10:32:12;;;;;;;12.83;12.33;;;26.60;72.00;;;;;;5040941;28;20464;-68
2023/05/27 10:34:45;;;;;;;13.90;13.30;;;26.90;70.50;;;;;;5040426;28;20871;-68
2023/05/27 10:37:20;;;;;;;12.90;12.40;;;26.80;71.00;;;;;;5035892;28;20989;-68
2023/05/27 10:39:56;;;;;;;15.80;14.60;;;26.70;71.90;;;;;;5039229;28;21861;-69
2023/05/27 10:42:25;;;;;;;13.33;12.73;;;27.40;70.00;;;;;;5039556;28;20460;-69
2023/05/27 10:45:05;;;;;;;13.33;12.73;;;27.00;70.20;;;;;;5046631;28;20538;-69
2023/05/27 10:47:36;;;;;;;14.50;13.70;;;26.20;71.00;;;;;;5042373;28;20461;-69
2023/05/27 10:50:12;;;;;;;13.40;12.63;;;25.90;72.50;;;;;;5046611;28;20452;-69
2023/05/27 10:52:40;;;;;;;12.57;12.07;;;26.50;71.80;;;;;;5038817;28;20465;-69
2023/05/27 10:55:07;;;;;;;13.13;12.10;;;27.00;70.80;;;;;;5039722;28;20455;-69
2023/05/27 10:57:36;;;;;;;13.17;12.67;;;26.70;71.10;;;;;;5044332;28;20499;-69
2023/05/27 11:00:08;;;;;;;12.93;12.33;;;26.70;69.20;;;;;;5042779;28;20458;-69
2023/05/27 11:02:36;;;;;;;11.40;11.00;;;26.40;71.50;;;;;;5045869;28;20468;-69
2023/05/27 11:05:08;;;;;;;14.63;13.83;;;27.40;72.50;;;;;;5038205;28;21189;-69
2023/05/27 11:07:38;;;;;;;12.80;12.30;;;27.20;68.00;;;;;;5042545;28;20456;-69
2023/05/27 11:10:06;;;;;;;13.80;13.20;;;27.20;69.30;;;;;;5037349;28;20467;-69
2023/05/27 11:12:35;;;;;;;12.97;12.47;;;28.10;70.70;;;;;;5039386;28;20471;-69
2023/05/27 11:15:03;;;;;;;12.40;11.90;;;28.60;68.30;;;;;;5032681;28;20505;-69
2023/05/27 11:17:31;;;;;;;13.47;12.97;;;29.70;67.30;;;;;;5036869;28;20453;-69
2023/05/27 11:19:58;;;;;;;13.03;12.53;;;29.50;64.80;;;;;;5036875;28;20548;-69
2023/05/27 11:22:25;;;;;;;14.80;13.90;;;28.90;64.20;;;;;;5042709;28;20467;-69
2023/05/27 11:24:59;;;;;;;13.93;13.13;;;28.20;65.50;;;;;;5039800;28;20460;-69
2023/05/27 11:27:36;;;;;;;12.93;12.43;;;28.80;66.30;;;;;;5033976;28;20491;-69
2023/05/27 11:30:09;;;;;;;13.57;13.07;;;29.10;64.20;;;;;;5050872;28;20543;-69
2023/05/27 11:32:37;;;;;;;13.80;13.20;;;29.90;61.40;;;;;;5044988;28;20468;-69
2023/05/27 11:35:05;;;;;;;12.63;12.13;;;29.00;62.60;;;;;;5043243;28;20456;-69
2023/05/27 11:37:34;;;;;;;13.13;12.63;;;28.80;62.90;;;;;;5037810;28;20456;-69
2023/05/27 11:40:01;;;;;;;12.90;12.40;;;29.70;63.20;;;;;;5047126;28;20460;-70
2023/05/27 11:42:32;;;;;;;14.77;13.97;;;29.00;62.70;;;;;;5053600;28;20468;-69
2023/05/27 11:45:00;;;;;;;14.83;13.77;;;29.60;62.70;;;;;;5034382;28;20468;-69
2023/05/27 11:47:27;;;;;;;15.13;13.63;;;29.10;63.70;;;;;;5041520;28;20490;-69
2023/05/27 11:49:54;;;;;;;14.40;13.80;;;29.90;64.40;;;;;;5039969;28;20465;-69
2023/05/27 11:52:26;;;;;;;13.00;12.50;;;29.70;61.60;;;;;;5030343;28;20496;-69
2023/05/27 11:54:53;;;;;;;15.17;14.30;;;30.30;60.40;;;;;;5045368;28;20474;-69
2023/05/27 11:57:20;;;;;;;12.67;12.17;;;30.30;58.30;;;;;;5044692;28;20468;-69
2023/05/27 11:59:47;;;;;;;14.53;13.73;;;29.40;58.70;;;;;;5036087;28;20510;-69
2023/05/27 12:02:15;;;;;;;12.93;12.43;;;29.10;58.20;;;;;;5040099;28;20471;-70
2023/05/27 12:04:42;;;;;;;16.93;16.10;;;30.50;60.90;;;;;;5045401;28;21014;-67
2023/05/27 12:07:10;;;;;;;13.50;13.00;;;31.10;58.90;;;;;;5039323;28;20476;-68
2023/05/27 12:09:37;;;;;;;15.37;14.23;;;30.50;58.80;;;;;;5042487;28;20464;-67
2023/05/27 12:12:04;;;;;;;14.40;13.47;;;31.20;57.00;;;;;;5037241;28;20542;-68
2023/05/27 12:14:31;;;;;;;15.77;15.03;;;31.00;56.30;;;;;;5027213;28;20475;-68
2023/05/27 12:16:58;;;;;;;13.43;12.93;;;31.60;56.00;;;;;;5035761;28;20459;-68
2023/05/27 12:19:28;;;;;;;14.97;14.20;;;32.60;54.10;;;;;;5033145;28;20493;-68
2023/05/27 12:21:55;;;;;;;15.73;13.93;;;31.30;53.60;;;;;;5029586;28;20499;-68
2023/05/27 12:24:22;;;;;;;14.50;13.70;;;31.30;52.90;;;;;;5033168;28;20471;-68
2023/05/27 12:26:49;;;;;;;12.73;12.23;;;31.60;52.90;;;;;;5037317;28;20471;-69
2023/05/27 12:29:16;;;;;;;16.20;15.30;;;31.20;54.50;;;;;;5032536;28;20460;-68
2023/05/27 12:31:44;;;;;;;12.60;12.10;;;32.00;54.60;;;;;;5036731;28;20498;-69
2023/05/27 12:34:11;;;;;;;12.60;12.10;;;32.70;54.10;;;;;;5039022;28;20914;-68
2023/05/27 12:36:39;;;;;;;13.33;12.50;;;33.10;53.40;;;;;;5037033;28;20592;-69
2023/05/27 12:39:06;;;;;;;14.30;13.67;;;33.00;52.30;;;;;;5038202;28;20829;-68
2023/05/27 12:41:32;;;;;;;11.90;11.50;;;32.40;51.10;;;;;;5043440;28;20849;-68